sensor_id;sensor_type;location;lat;lon;timestamp;P1;durP1;ratioP1;P2;durP2;ratioP2
65871;SDS011;52653;50.080;21.992;2024-02-04T00:01:08;12.00;;;8.40;;
65871;SDS011;52653;50.080;21.992;2024-02-04T00:04:00;11.40;;;7.80;;
65871;SDS011;52653;50.080;21.992;2024-02-04T00:06:37;10.80;;;8.00;;
65871;SDS011;52653;50.080;21.992;2024-02-04T00:09:30;10.40;;;8.30;;
65871;SDS011;52653;50.080;21.992;2024-02-04T00:12:25;11.30;;;8.70;;
65871;SDS011;52653;50.080;21.992;2024-02-04T00:15:18;12.00;;;8.80;;
65871;SDS011;52653;50.080;21.992;2024-02-04T00:18:10;12.90;;;9.10;;
65871;SDS011;52653;50.080;21.992;2024-02-04T00:21:03;11.20;;;8.70;;
65871;SDS011;52653;50.080;21.992;2024-02-04T00:23:46;11.40;;;8.90;;
65871;SDS011;52653;50.080;21.992;2024-02-04T00:26:38;11.50;;;9.40;;
65871;SDS011;52653;50.080;21.992;2024-02-04T00:29:31;11.90;;;8.70;;
65871;SDS011;52653;50.080;21.992;2024-02-04T00:32:24;13.90;;;10.10;;
65871;SDS011;52653;50.080;21.992;2024-02-04T00:34:57;14.90;;;10.40;;
65871;SDS011;52653;50.080;21.992;2024-02-04T00:37:50;16.50;;;11.20;;
65871;SDS011;52653;50.080;21.992;2024-02-04T00:40:42;13.70;;;10.30;;
65871;SDS011;52653;50.080;21.992;2024-02-04T00:43:35;15.00;;;10.10;;
65871;SDS011;52653;50.080;21.992;2024-02-04T00:46:28;14.40;;;11.00;;
65871;SDS011;52653;50.080;21.992;2024-02-04T00:49:11;13.90;;;10.40;;
65871;SDS011;52653;50.080;21.992;2024-02-04T00:51:44;12.90;;;9.70;;
65871;SDS011;52653;50.080;21.992;2024-02-04T00:54:28;11.80;;;9.30;;
65871;SDS011;52653;50.080;21.992;2024-02-04T00:57:14;12.60;;;9.50;;
65871;SDS011;52653;50.080;21.992;2024-02-04T00:59:56;13.00;;;10.10;;
65871;SDS011;52653;50.080;21.992;2024-02-04T01:02:49;13.10;;;10.50;;
65871;SDS011;52653;50.080;21.992;2024-02-04T01:05:41;12.00;;;9.60;;
65871;SDS011;52653;50.080;21.992;2024-02-04T01:08:34;14.30;;;9.70;;
65871;SDS011;52653;50.080;21.992;2024-02-04T01:11:27;14.10;;;10.00;;
65871;SDS011;52653;50.080;21.992;2024-02-04T01:14:02;14.10;;;10.60;;
65871;SDS011;52653;50.080;21.992;2024-02-04T01:16:34;10.70;;;8.90;;
65871;SDS011;52653;50.080;21.992;2024-02-04T01:19:27;12.40;;;9.30;;
65871;SDS011;52653;50.080;21.992;2024-02-04T01:22:02;12.10;;;8.00;;
65871;SDS011;52653;50.080;21.992;2024-02-04T01:24:56;10.00;;;7.30;;
65871;SDS011;52653;50.080;21.992;2024-02-04T01:27:49;10.40;;;7.20;;
65871;SDS011;52653;50.080;21.992;2024-02-04T01:30:24;11.20;;;7.30;;
65871;SDS011;52653;50.080;21.992;2024-02-04T01:33:01;9.50;;;7.20;;
65871;SDS011;52653;50.080;21.992;2024-02-04T01:35:53;8.90;;;6.30;;
65871;SDS011;52653;50.080;21.992;2024-02-04T01:38:48;10.10;;;7.00;;
65871;SDS011;52653;50.080;21.992;2024-02-04T01:41:31;9.50;;;6.50;;
65871;SDS011;52653;50.080;21.992;2024-02-04T01:44:24;7.90;;;5.80;;
65871;SDS011;52653;50.080;21.992;2024-02-04T01:47:17;7.80;;;5.60;;
65871;SDS011;52653;50.080;21.992;2024-02-04T01:50:10;10.50;;;6.40;;
65871;SDS011;52653;50.080;21.992;2024-02-04T01:53:03;8.40;;;6.20;;
65871;SDS011;52653;50.080;21.992;2024-02-04T01:55:56;9.40;;;5.80;;
65871;SDS011;52653;50.080;21.992;2024-02-04T01:58:49;8.40;;;6.20;;
65871;SDS011;52653;50.080;21.992;2024-02-04T02:01:42;9.60;;;6.70;;
65871;SDS011;52653;50.080;21.992;2024-02-04T02:04:36;9.00;;;6.00;;
65871;SDS011;52653;50.080;21.992;2024-02-04T02:07:29;8.30;;;6.40;;
65871;SDS011;52653;50.080;21.992;2024-02-04T02:10:22;8.70;;;6.50;;
65871;SDS011;52653;50.080;21.992;2024-02-04T02:13:16;9.00;;;6.30;;
65871;SDS011;52653;50.080;21.992;2024-02-04T02:18:59;9.40;;;6.80;;
65871;SDS011;52653;50.080;21.992;2024-02-04T02:21:50;8.40;;;6.00;;
65871;SDS011;52653;50.080;21.992;2024-02-04T02:24:38;9.90;;;7.10;;
65871;SDS011;52653;50.080;21.992;2024-02-04T02:27:32;9.10;;;7.00;;
65871;SDS011;52653;50.080;21.992;2024-02-04T02:30:25;10.40;;;8.00;;
65871;SDS011;52653;50.080;21.992;2024-02-04T02:33:17;9.90;;;8.10;;
65871;SDS011;52653;50.080;21.992;2024-02-04T02:36:11;9.80;;;7.60;;
65871;SDS011;52653;50.080;21.992;2024-02-04T02:39:09;9.30;;;6.80;;
65871;SDS011;52653;50.080;21.992;2024-02-04T02:42:07;9.50;;;7.00;;
65871;SDS011;52653;50.080;21.992;2024-02-04T02:45:02;9.10;;;6.90;;
65871;SDS011;52653;50.080;21.992;2024-02-04T02:47:57;8.40;;;6.20;;
65871;SDS011;52653;50.080;21.992;2024-02-04T02:50:41;9.30;;;5.70;;
65871;SDS011;52653;50.080;21.992;2024-02-04T02:53:24;8.40;;;5.40;;
65871;SDS011;52653;50.080;21.992;2024-02-04T02:56:16;7.80;;;4.90;;
65871;SDS011;52653;50.080;21.992;2024-02-04T02:59:09;7.80;;;5.30;;
65871;SDS011;52653;50.080;21.992;2024-02-04T03:02:01;6.50;;;4.70;;
65871;SDS011;52653;50.080;21.992;2024-02-04T03:04:54;7.70;;;5.20;;
65871;SDS011;52653;50.080;21.992;2024-02-04T03:07:40;6.80;;;4.20;;
65871;SDS011;52653;50.080;21.992;2024-02-04T03:10:17;6.90;;;4.40;;
65871;SDS011;52653;50.080;21.992;2024-02-04T03:13:10;6.70;;;4.50;;
65871;SDS011;52653;50.080;21.992;2024-02-04T03:15:46;7.50;;;5.10;;
65871;SDS011;52653;50.080;21.992;2024-02-04T03:18:22;7.80;;;4.50;;
65871;SDS011;52653;50.080;21.992;2024-02-04T03:21:15;6.70;;;4.60;;
65871;SDS011;52653;50.080;21.992;2024-02-04T03:24:08;6.90;;;4.70;;
65871;SDS011;52653;50.080;21.992;2024-02-04T03:27:00;8.00;;;4.90;;
65871;SDS011;52653;50.080;21.992;2024-02-04T03:29:53;7.30;;;5.30;;
65871;SDS011;52653;50.080;21.992;2024-02-04T03:32:46;8.60;;;5.70;;
65871;SDS011;52653;50.080;21.992;2024-02-04T03:35:38;6.90;;;5.00;;
65871;SDS011;52653;50.080;21.992;2024-02-04T03:38:14;8.00;;;5.40;;
65871;SDS011;52653;50.080;21.992;2024-02-04T03:41:06;8.80;;;5.20;;
65871;SDS011;52653;50.080;21.992;2024-02-04T03:43:58;8.10;;;5.40;;
65871;SDS011;52653;50.080;21.992;2024-02-04T03:46:40;7.90;;;4.80;;
65871;SDS011;52653;50.080;21.992;2024-02-04T03:49:25;7.60;;;5.00;;
65871;SDS011;52653;50.080;21.992;2024-02-04T03:52:18;6.30;;;4.40;;
65871;SDS011;52653;50.080;21.992;2024-02-04T03:55:03;8.10;;;4.20;;
65871;SDS011;52653;50.080;21.992;2024-02-04T03:57:46;7.10;;;4.20;;
65871;SDS011;52653;50.080;21.992;2024-02-04T04:00:38;6.30;;;3.80;;
65871;SDS011;52653;50.080;21.992;2024-02-04T04:03:22;8.10;;;4.90;;
65871;SDS011;52653;50.080;21.992;2024-02-04T04:06:15;6.70;;;4.30;;
65871;SDS011;52653;50.080;21.992;2024-02-04T04:09:07;7.40;;;4.90;;
65871;SDS011;52653;50.080;21.992;2024-02-04T04:12:00;6.50;;;3.60;;
65871;SDS011;52653;50.080;21.992;2024-02-04T04:14:52;6.50;;;4.00;;
65871;SDS011;52653;50.080;21.992;2024-02-04T04:17:45;6.40;;;3.60;;
65871;SDS011;52653;50.080;21.992;2024-02-04T04:20:30;5.90;;;3.70;;
65871;SDS011;52653;50.080;21.992;2024-02-04T04:23:23;6.10;;;3.10;;
65871;SDS011;52653;50.080;21.992;2024-02-04T04:26:15;6.10;;;3.20;;
65871;SDS011;52653;50.080;21.992;2024-02-04T04:28:59;6.00;;;2.90;;
65871;SDS011;52653;50.080;21.992;2024-02-04T04:31:35;5.10;;;2.90;;
65871;SDS011;52653;50.080;21.992;2024-02-04T04:34:18;6.30;;;3.10;;
65871;SDS011;52653;50.080;21.992;2024-02-04T04:37:11;4.70;;;1.90;;
65871;SDS011;52653;50.080;21.992;2024-02-04T04:39:49;5.40;;;2.20;;
65871;SDS011;52653;50.080;21.992;2024-02-04T04:42:42;3.70;;;1.90;;
65871;SDS011;52653;50.080;21.992;2024-02-04T04:45:34;6.80;;;2.30;;
65871;SDS011;52653;50.080;21.992;2024-02-04T04:48:27;4.70;;;2.30;;
65871;SDS011;52653;50.080;21.992;2024-02-04T04:51:20;3.80;;;1.90;;
65871;SDS011;52653;50.080;21.992;2024-02-04T04:53:52;5.40;;;1.90;;
65871;SDS011;52653;50.080;21.992;2024-02-04T04:56:45;3.30;;;1.70;;
65871;SDS011;52653;50.080;21.992;2024-02-04T04:59:37;5.60;;;1.80;;
65871;SDS011;52653;50.080;21.992;2024-02-04T05:02:30;4.90;;;1.50;;
65871;SDS011;52653;50.080;21.992;2024-02-04T05:05:23;4.20;;;1.40;;
65871;SDS011;52653;50.080;21.992;2024-02-04T05:08:15;4.30;;;1.50;;
65871;SDS011;52653;50.080;21.992;2024-02-04T05:10:57;4.50;;;1.30;;
65871;SDS011;52653;50.080;21.992;2024-02-04T05:13:32;3.40;;;1.10;;
65871;SDS011;52653;50.080;21.992;2024-02-04T05:16:05;2.90;;;1.10;;
65871;SDS011;52653;50.080;21.992;2024-02-04T05:18:37;3.30;;;1.40;;
65871;SDS011;52653;50.080;21.992;2024-02-04T05:21:30;4.40;;;1.50;;
65871;SDS011;52653;50.080;21.992;2024-02-04T05:24:15;2.90;;;1.30;;
65871;SDS011;52653;50.080;21.992;2024-02-04T05:27:00;3.90;;;1.40;;
65871;SDS011;52653;50.080;21.992;2024-02-04T05:29:54;3.70;;;1.20;;
65871;SDS011;52653;50.080;21.992;2024-02-04T05:32:46;3.90;;;1.40;;
65871;SDS011;52653;50.080;21.992;2024-02-04T05:35:39;4.20;;;1.60;;
65871;SDS011;52653;50.080;21.992;2024-02-04T05:38:22;3.20;;;1.30;;
65871;SDS011;52653;50.080;21.992;2024-02-04T05:40:54;3.60;;;1.40;;
65871;SDS011;52653;50.080;21.992;2024-02-04T05:43:47;4.10;;;1.50;;
65871;SDS011;52653;50.080;21.992;2024-02-04T05:46:40;3.40;;;1.70;;
65871;SDS011;52653;50.080;21.992;2024-02-04T05:49:33;5.00;;;1.30;;
65871;SDS011;52653;50.080;21.992;2024-02-04T05:52:19;3.80;;;1.40;;
65871;SDS011;52653;50.080;21.992;2024-02-04T05:55:12;5.00;;;1.50;;
65871;SDS011;52653;50.080;21.992;2024-02-04T05:57:54;4.60;;;1.60;;
65871;SDS011;52653;50.080;21.992;2024-02-04T06:00:47;4.40;;;1.50;;
65871;SDS011;52653;50.080;21.992;2024-02-04T06:03:40;5.10;;;1.70;;
65871;SDS011;52653;50.080;21.992;2024-02-04T06:06:24;3.50;;;1.80;;
65871;SDS011;52653;50.080;21.992;2024-02-04T06:09:08;4.50;;;1.40;;
65871;SDS011;52653;50.080;21.992;2024-02-04T06:11:50;4.70;;;1.70;;
65871;SDS011;52653;50.080;21.992;2024-02-04T06:14:43;3.70;;;1.80;;
65871;SDS011;52653;50.080;21.992;2024-02-04T06:17:36;4.50;;;1.60;;
65871;SDS011;52653;50.080;21.992;2024-02-04T06:20:28;4.10;;;1.70;;
65871;SDS011;52653;50.080;21.992;2024-02-04T06:23:12;6.00;;;1.50;;
65871;SDS011;52653;50.080;21.992;2024-02-04T06:25:54;4.60;;;1.60;;
65871;SDS011;52653;50.080;21.992;2024-02-04T06:28:30;3.70;;;1.50;;
65871;SDS011;52653;50.080;21.992;2024-02-04T06:31:15;4.50;;;1.70;;
65871;SDS011;52653;50.080;21.992;2024-02-04T06:34:08;4.30;;;1.60;;
65871;SDS011;52653;50.080;21.992;2024-02-04T06:36:50;4.40;;;1.60;;
65871;SDS011;52653;50.080;21.992;2024-02-04T06:39:43;3.10;;;1.30;;
65871;SDS011;52653;50.080;21.992;2024-02-04T06:42:36;4.30;;;1.70;;
65871;SDS011;52653;50.080;21.992;2024-02-04T06:45:22;5.00;;;2.10;;
65871;SDS011;52653;50.080;21.992;2024-02-04T06:48:15;4.10;;;1.70;;
65871;SDS011;52653;50.080;21.992;2024-02-04T06:51:01;3.70;;;1.80;;
65871;SDS011;52653;50.080;21.992;2024-02-04T06:53:43;6.00;;;1.90;;
65871;SDS011;52653;50.080;21.992;2024-02-04T06:56:36;5.30;;;2.20;;
65871;SDS011;52653;50.080;21.992;2024-02-04T06:59:28;5.30;;;2.00;;
65871;SDS011;52653;50.080;21.992;2024-02-04T07:02:12;6.90;;;2.10;;
65871;SDS011;52653;50.080;21.992;2024-02-04T07:05:05;4.10;;;2.10;;
65871;SDS011;52653;50.080;21.992;2024-02-04T07:07:50;4.40;;;2.10;;
65871;SDS011;52653;50.080;21.992;2024-02-04T07:10:42;7.10;;;2.20;;
65871;SDS011;52653;50.080;21.992;2024-02-04T07:13:17;7.00;;;2.20;;
65871;SDS011;52653;50.080;21.992;2024-02-04T07:16:08;5.40;;;2.10;;
65871;SDS011;52653;50.080;21.992;2024-02-04T07:19:01;4.00;;;1.70;;
65871;SDS011;52653;50.080;21.992;2024-02-04T07:21:54;5.60;;;1.90;;
65871;SDS011;52653;50.080;21.992;2024-02-04T07:24:35;7.10;;;2.80;;
65871;SDS011;52653;50.080;21.992;2024-02-04T07:27:28;5.10;;;1.90;;
65871;SDS011;52653;50.080;21.992;2024-02-04T07:30:12;6.50;;;2.30;;
65871;SDS011;52653;50.080;21.992;2024-02-04T07:33:05;8.00;;;3.30;;
65871;SDS011;52653;50.080;21.992;2024-02-04T07:35:58;4.20;;;1.70;;
65871;SDS011;52653;50.080;21.992;2024-02-04T07:38:50;7.10;;;3.00;;
65871;SDS011;52653;50.080;21.992;2024-02-04T07:41:37;5.80;;;2.10;;
65871;SDS011;52653;50.080;21.992;2024-02-04T07:44:29;5.80;;;1.90;;
65871;SDS011;52653;50.080;21.992;2024-02-04T07:47:22;4.60;;;1.50;;
65871;SDS011;52653;50.080;21.992;2024-02-04T07:50:15;6.00;;;2.60;;
65871;SDS011;52653;50.080;21.992;2024-02-04T07:53:08;6.40;;;2.00;;
65871;SDS011;52653;50.080;21.992;2024-02-04T07:56:00;6.80;;;2.10;;
65871;SDS011;52653;50.080;21.992;2024-02-04T07:58:38;6.50;;;2.60;;
65871;SDS011;52653;50.080;21.992;2024-02-04T08:01:25;7.00;;;2.60;;
65871;SDS011;52653;50.080;21.992;2024-02-04T08:04:07;5.00;;;1.60;;
65871;SDS011;52653;50.080;21.992;2024-02-04T08:06:43;7.10;;;2.20;;
65871;SDS011;52653;50.080;21.992;2024-02-04T08:09:26;5.60;;;2.40;;
65871;SDS011;52653;50.080;21.992;2024-02-04T08:12:18;8.30;;;2.40;;
65871;SDS011;52653;50.080;21.992;2024-02-04T08:15:01;7.40;;;2.70;;
65871;SDS011;52653;50.080;21.992;2024-02-04T08:17:37;8.30;;;3.00;;
65871;SDS011;52653;50.080;21.992;2024-02-04T08:20:10;4.80;;;2.20;;
65871;SDS011;52653;50.080;21.992;2024-02-04T08:22:55;24.50;;;13.00;;
65871;SDS011;52653;50.080;21.992;2024-02-04T08:25:47;12.20;;;6.00;;
65871;SDS011;52653;50.080;21.992;2024-02-04T08:28:41;11.10;;;5.50;;
65871;SDS011;52653;50.080;21.992;2024-02-04T08:31:33;11.10;;;5.50;;
65871;SDS011;52653;50.080;21.992;2024-02-04T08:34:26;8.30;;;2.90;;
65871;SDS011;52653;50.080;21.992;2024-02-04T08:37:18;8.50;;;5.10;;
65871;SDS011;52653;50.080;21.992;2024-02-04T08:39:58;7.70;;;2.70;;
65871;SDS011;52653;50.080;21.992;2024-02-04T08:42:40;6.80;;;3.10;;
65871;SDS011;52653;50.080;21.992;2024-02-04T08:45:33;8.30;;;2.90;;
65871;SDS011;52653;50.080;21.992;2024-02-04T08:48:08;8.00;;;2.70;;
65871;SDS011;52653;50.080;21.992;2024-02-04T08:51:01;8.00;;;3.00;;
65871;SDS011;52653;50.080;21.992;2024-02-04T08:54:00;7.30;;;3.10;;
65871;SDS011;52653;50.080;21.992;2024-02-04T08:56:36;7.10;;;2.90;;
65871;SDS011;52653;50.080;21.992;2024-02-04T08:59:08;6.80;;;2.70;;
65871;SDS011;52653;50.080;21.992;2024-02-04T09:02:01;8.70;;;3.60;;
65871;SDS011;52653;50.080;21.992;2024-02-04T09:04:52;7.50;;;3.60;;
65871;SDS011;52653;50.080;21.992;2024-02-04T09:07:44;10.50;;;4.60;;
65871;SDS011;52653;50.080;21.992;2024-02-04T09:10:37;6.70;;;2.60;;
65871;SDS011;52653;50.080;21.992;2024-02-04T09:13:13;7.00;;;2.60;;
65871;SDS011;52653;50.080;21.992;2024-02-04T09:15:56;6.30;;;2.70;;
65871;SDS011;52653;50.080;21.992;2024-02-04T09:18:39;8.10;;;2.90;;
65871;SDS011;52653;50.080;21.992;2024-02-04T09:21:15;6.10;;;2.30;;
65871;SDS011;52653;50.080;21.992;2024-02-04T09:24:09;5.50;;;2.30;;
65871;SDS011;52653;50.080;21.992;2024-02-04T09:26:44;8.30;;;2.60;;
65871;SDS011;52653;50.080;21.992;2024-02-04T09:29:30;8.00;;;3.50;;
65871;SDS011;52653;50.080;21.992;2024-02-04T09:32:22;7.80;;;3.40;;
65871;SDS011;52653;50.080;21.992;2024-02-04T09:35:07;5.70;;;2.80;;
65871;SDS011;52653;50.080;21.992;2024-02-04T09:37:43;6.90;;;2.80;;
65871;SDS011;52653;50.080;21.992;2024-02-04T09:40:36;5.70;;;2.50;;
65871;SDS011;52653;50.080;21.992;2024-02-04T09:43:16;6.60;;;2.80;;
65871;SDS011;52653;50.080;21.992;2024-02-04T09:45:52;6.20;;;2.20;;
65871;SDS011;52653;50.080;21.992;2024-02-04T09:48:29;5.10;;;1.80;;
65871;SDS011;52653;50.080;21.992;2024-02-04T09:51:04;5.50;;;2.00;;
65871;SDS011;52653;50.080;21.992;2024-02-04T09:53:39;8.60;;;2.70;;
65871;SDS011;52653;50.080;21.992;2024-02-04T09:56:27;5.70;;;2.20;;
65871;SDS011;52653;50.080;21.992;2024-02-04T09:59:13;4.30;;;2.20;;
65871;SDS011;52653;50.080;21.992;2024-02-04T10:01:49;9.10;;;2.50;;
65871;SDS011;52653;50.080;21.992;2024-02-04T10:04:34;7.70;;;2.80;;
65871;SDS011;52653;50.080;21.992;2024-02-04T10:07:27;7.90;;;2.90;;
65871;SDS011;52653;50.080;21.992;2024-02-04T10:10:20;9.60;;;3.00;;
65871;SDS011;52653;50.080;21.992;2024-02-04T10:12:58;7.10;;;2.20;;
65871;SDS011;52653;50.080;21.992;2024-02-04T10:15:48;7.10;;;2.80;;
65871;SDS011;52653;50.080;21.992;2024-02-04T10:18:42;7.30;;;2.70;;
65871;SDS011;52653;50.080;21.992;2024-02-04T10:21:18;6.90;;;2.80;;
65871;SDS011;52653;50.080;21.992;2024-02-04T10:24:03;5.60;;;2.60;;
65871;SDS011;52653;50.080;21.992;2024-02-04T10:26:47;6.80;;;2.50;;
65871;SDS011;52653;50.080;21.992;2024-02-04T10:29:40;6.30;;;2.00;;
65871;SDS011;52653;50.080;21.992;2024-02-04T10:32:33;5.80;;;2.50;;
65871;SDS011;52653;50.080;21.992;2024-02-04T10:35:26;9.90;;;3.10;;
65871;SDS011;52653;50.080;21.992;2024-02-04T10:38:18;4.40;;;2.10;;
65871;SDS011;52653;50.080;21.992;2024-02-04T10:40:59;8.70;;;2.70;;
65871;SDS011;52653;50.080;21.992;2024-02-04T10:43:52;5.90;;;2.20;;
65871;SDS011;52653;50.080;21.992;2024-02-04T10:46:46;6.90;;;2.60;;
65871;SDS011;52653;50.080;21.992;2024-02-04T10:49:39;7.50;;;2.70;;
65871;SDS011;52653;50.080;21.992;2024-02-04T10:52:37;5.30;;;2.10;;
65871;SDS011;52653;50.080;21.992;2024-02-04T10:55:24;5.20;;;1.70;;
65871;SDS011;52653;50.080;21.992;2024-02-04T10:58:13;5.90;;;2.20;;
65871;SDS011;52653;50.080;21.992;2024-02-04T11:00:56;6.80;;;1.80;;
65871;SDS011;52653;50.080;21.992;2024-02-04T11:03:49;4.90;;;1.80;;
65871;SDS011;52653;50.080;21.992;2024-02-04T11:06:45;5.20;;;2.30;;
65871;SDS011;52653;50.080;21.992;2024-02-04T11:09:32;4.10;;;1.50;;
65871;SDS011;52653;50.080;21.992;2024-02-04T11:12:11;6.00;;;2.10;;
65871;SDS011;52653;50.080;21.992;2024-02-04T11:15:07;5.60;;;1.40;;
65871;SDS011;52653;50.080;21.992;2024-02-04T11:18:06;6.20;;;2.00;;
65871;SDS011;52653;50.080;21.992;2024-02-04T11:21:18;6.80;;;2.10;;
65871;SDS011;52653;50.080;21.992;2024-02-04T11:24:40;8.10;;;2.40;;
65871;SDS011;52653;50.080;21.992;2024-02-04T11:27:34;7.50;;;2.00;;
65871;SDS011;52653;50.080;21.992;2024-02-04T11:30:31;5.30;;;2.10;;
65871;SDS011;52653;50.080;21.992;2024-02-04T11:33:26;6.30;;;2.10;;
65871;SDS011;52653;50.080;21.992;2024-02-04T11:36:23;7.90;;;2.00;;
65871;SDS011;52653;50.080;21.992;2024-02-04T11:39:17;5.20;;;1.90;;
65871;SDS011;52653;50.080;21.992;2024-02-04T11:42:16;4.40;;;1.40;;
65871;SDS011;52653;50.080;21.992;2024-02-04T11:45:09;5.00;;;1.70;;
65871;SDS011;52653;50.080;21.992;2024-02-04T11:48:03;6.70;;;1.60;;
65871;SDS011;52653;50.080;21.992;2024-02-04T11:50:37;4.90;;;1.60;;
65871;SDS011;52653;50.080;21.992;2024-02-04T11:53:30;7.50;;;2.30;;
65871;SDS011;52653;50.080;21.992;2024-02-04T11:56:13;7.80;;;2.30;;
65871;SDS011;52653;50.080;21.992;2024-02-04T11:58:59;7.10;;;1.90;;
65871;SDS011;52653;50.080;21.992;2024-02-04T12:01:54;7.50;;;2.30;;
65871;SDS011;52653;50.080;21.992;2024-02-04T12:04:48;7.30;;;1.90;;
65871;SDS011;52653;50.080;21.992;2024-02-04T12:07:35;8.10;;;2.30;;
65871;SDS011;52653;50.080;21.992;2024-02-04T12:10:33;6.80;;;2.20;;
65871;SDS011;52653;50.080;21.992;2024-02-04T12:13:26;8.20;;;2.30;;
65871;SDS011;52653;50.080;21.992;2024-02-04T12:16:19;6.60;;;2.20;;
65871;SDS011;52653;50.080;21.992;2024-02-04T12:19:05;6.00;;;2.00;;
65871;SDS011;52653;50.080;21.992;2024-02-04T12:21:51;7.40;;;2.20;;
65871;SDS011;52653;50.080;21.992;2024-02-04T12:24:44;9.10;;;2.30;;
65871;SDS011;52653;50.080;21.992;2024-02-04T12:27:27;7.00;;;2.40;;
65871;SDS011;52653;50.080;21.992;2024-02-04T12:30:12;6.80;;;2.60;;
65871;SDS011;52653;50.080;21.992;2024-02-04T12:33:06;8.30;;;2.70;;
65871;SDS011;52653;50.080;21.992;2024-02-04T12:35:59;5.80;;;2.10;;
65871;SDS011;52653;50.080;21.992;2024-02-04T12:38:42;6.90;;;2.50;;
65871;SDS011;52653;50.080;21.992;2024-02-04T12:41:33;8.20;;;3.10;;
65871;SDS011;52653;50.080;21.992;2024-02-04T12:44:06;5.00;;;1.80;;
65871;SDS011;52653;50.080;21.992;2024-02-04T12:46:59;6.90;;;2.80;;
65871;SDS011;52653;50.080;21.992;2024-02-04T12:49:51;8.90;;;3.10;;
65871;SDS011;52653;50.080;21.992;2024-02-04T12:52:37;7.10;;;2.90;;
65871;SDS011;52653;50.080;21.992;2024-02-04T12:55:10;6.50;;;2.10;;
65871;SDS011;52653;50.080;21.992;2024-02-04T12:58:03;6.80;;;2.30;;
65871;SDS011;52653;50.080;21.992;2024-02-04T13:01:00;8.10;;;2.10;;
65871;SDS011;52653;50.080;21.992;2024-02-04T13:03:56;7.10;;;2.20;;
65871;SDS011;52653;50.080;21.992;2024-02-04T13:06:39;5.30;;;2.00;;
65871;SDS011;52653;50.080;21.992;2024-02-04T13:09:31;6.40;;;2.10;;
65871;SDS011;52653;50.080;21.992;2024-02-04T13:12:15;5.20;;;1.90;;
65871;SDS011;52653;50.080;21.992;2024-02-04T13:15:01;6.10;;;1.70;;
65871;SDS011;52653;50.080;21.992;2024-02-04T13:17:54;5.80;;;1.50;;
65871;SDS011;52653;50.080;21.992;2024-02-04T13:20:48;6.10;;;1.70;;
65871;SDS011;52653;50.080;21.992;2024-02-04T13:23:41;5.90;;;1.90;;
65871;SDS011;52653;50.080;21.992;2024-02-04T13:26:33;6.10;;;1.80;;
65871;SDS011;52653;50.080;21.992;2024-02-04T13:29:30;4.30;;;1.40;;
65871;SDS011;52653;50.080;21.992;2024-02-04T13:32:23;8.10;;;1.80;;
65871;SDS011;52653;50.080;21.992;2024-02-04T13:35:16;6.60;;;2.30;;
65871;SDS011;52653;50.080;21.992;2024-02-04T13:38:09;7.10;;;2.40;;
65871;SDS011;52653;50.080;21.992;2024-02-04T13:40:53;5.00;;;2.30;;
65871;SDS011;52653;50.080;21.992;2024-02-04T13:43:45;8.10;;;2.80;;
65871;SDS011;52653;50.080;21.992;2024-02-04T13:46:39;9.40;;;3.50;;
65871;SDS011;52653;50.080;21.992;2024-02-04T13:49:32;10.60;;;4.50;;
65871;SDS011;52653;50.080;21.992;2024-02-04T13:52:16;10.30;;;4.00;;
65871;SDS011;52653;50.080;21.992;2024-02-04T13:55:09;11.60;;;3.30;;
65871;SDS011;52653;50.080;21.992;2024-02-04T13:57:41;8.30;;;2.10;;
65871;SDS011;52653;50.080;21.992;2024-02-04T14:00:34;12.20;;;3.00;;
65871;SDS011;52653;50.080;21.992;2024-02-04T14:03:17;9.40;;;3.40;;
65871;SDS011;52653;50.080;21.992;2024-02-04T14:05:53;12.20;;;4.10;;
65871;SDS011;52653;50.080;21.992;2024-02-04T14:08:28;7.60;;;3.00;;
65871;SDS011;52653;50.080;21.992;2024-02-04T14:11:21;10.20;;;2.90;;
65871;SDS011;52653;50.080;21.992;2024-02-04T14:14:06;8.70;;;3.00;;
65871;SDS011;52653;50.080;21.992;2024-02-04T14:16:58;7.90;;;2.70;;
65871;SDS011;52653;50.080;21.992;2024-02-04T14:19:51;7.90;;;2.70;;
65871;SDS011;52653;50.080;21.992;2024-02-04T14:22:44;10.40;;;3.30;;
65871;SDS011;52653;50.080;21.992;2024-02-04T14:25:26;8.00;;;3.40;;
65871;SDS011;52653;50.080;21.992;2024-02-04T14:28:19;10.70;;;3.90;;
65871;SDS011;52653;50.080;21.992;2024-02-04T14:31:12;6.90;;;2.70;;
65871;SDS011;52653;50.080;21.992;2024-02-04T14:34:05;8.40;;;2.90;;
65871;SDS011;52653;50.080;21.992;2024-02-04T14:36:48;8.00;;;2.90;;
65871;SDS011;52653;50.080;21.992;2024-02-04T14:39:40;8.90;;;4.10;;
65871;SDS011;52653;50.080;21.992;2024-02-04T14:42:33;8.10;;;3.10;;
65871;SDS011;52653;50.080;21.992;2024-02-04T14:45:29;8.60;;;3.80;;
65871;SDS011;52653;50.080;21.992;2024-02-04T14:48:22;11.20;;;4.50;;
65871;SDS011;52653;50.080;21.992;2024-02-04T14:51:06;12.80;;;4.70;;
65871;SDS011;52653;50.080;21.992;2024-02-04T14:53:59;9.00;;;4.30;;
65871;SDS011;52653;50.080;21.992;2024-02-04T14:56:52;12.70;;;5.20;;
65871;SDS011;52653;50.080;21.992;2024-02-04T14:59:46;9.40;;;4.40;;
65871;SDS011;52653;50.080;21.992;2024-02-04T15:02:38;9.70;;;4.60;;
65871;SDS011;52653;50.080;21.992;2024-02-04T15:05:35;11.40;;;4.60;;
65871;SDS011;52653;50.080;21.992;2024-02-04T15:08:28;11.10;;;5.20;;
65871;SDS011;52653;50.080;21.992;2024-02-04T15:11:21;9.70;;;4.80;;
65871;SDS011;52653;50.080;21.992;2024-02-04T15:14:15;9.50;;;4.70;;
65871;SDS011;52653;50.080;21.992;2024-02-04T15:17:01;8.80;;;4.70;;
65871;SDS011;52653;50.080;21.992;2024-02-04T15:19:54;10.00;;;4.80;;
65871;SDS011;52653;50.080;21.992;2024-02-04T15:22:51;10.60;;;5.20;;
65871;SDS011;52653;50.080;21.992;2024-02-04T15:25:46;11.00;;;4.90;;
65871;SDS011;52653;50.080;21.992;2024-02-04T15:28:33;10.00;;;5.00;;
65871;SDS011;52653;50.080;21.992;2024-02-04T15:31:26;10.30;;;4.80;;
65871;SDS011;52653;50.080;21.992;2024-02-04T15:34:20;12.10;;;5.70;;
65871;SDS011;52653;50.080;21.992;2024-02-04T15:37:15;9.50;;;5.20;;
65871;SDS011;52653;50.080;21.992;2024-02-04T15:40:09;12.30;;;5.80;;
65871;SDS011;52653;50.080;21.992;2024-02-04T15:43:03;15.40;;;7.50;;
65871;SDS011;52653;50.080;21.992;2024-02-04T15:45:56;12.00;;;6.30;;
65871;SDS011;52653;50.080;21.992;2024-02-04T15:48:54;12.00;;;6.30;;
65871;SDS011;52653;50.080;21.992;2024-02-04T15:51:50;16.00;;;8.70;;
65871;SDS011;52653;50.080;21.992;2024-02-04T15:54:43;13.40;;;7.50;;
65871;SDS011;52653;50.080;21.992;2024-02-04T15:57:16;13.30;;;6.60;;
65871;SDS011;52653;50.080;21.992;2024-02-04T15:59:57;14.60;;;6.50;;
65871;SDS011;52653;50.080;21.992;2024-02-04T16:02:50;13.10;;;7.10;;
65871;SDS011;52653;50.080;21.992;2024-02-04T16:05:38;11.90;;;6.40;;
65871;SDS011;52653;50.080;21.992;2024-02-04T16:08:14;11.60;;;6.40;;
65871;SDS011;52653;50.080;21.992;2024-02-04T16:11:00;11.50;;;6.60;;
65871;SDS011;52653;50.080;21.992;2024-02-04T16:13:35;11.50;;;6.30;;
65871;SDS011;52653;50.080;21.992;2024-02-04T16:16:12;13.10;;;7.70;;
65871;SDS011;52653;50.080;21.992;2024-02-04T16:18:49;14.20;;;8.30;;
65871;SDS011;52653;50.080;21.992;2024-02-04T16:21:22;14.30;;;9.10;;
65871;SDS011;52653;50.080;21.992;2024-02-04T16:23:55;15.30;;;10.70;;
65871;SDS011;52653;50.080;21.992;2024-02-04T16:26:28;15.70;;;10.00;;
65871;SDS011;52653;50.080;21.992;2024-02-04T16:29:02;17.20;;;10.40;;
65871;SDS011;52653;50.080;21.992;2024-02-04T16:31:35;18.30;;;12.50;;
65871;SDS011;52653;50.080;21.992;2024-02-04T16:34:07;15.90;;;11.00;;
65871;SDS011;52653;50.080;21.992;2024-02-04T16:36:40;13.40;;;8.50;;